Time;durP1;ratioP1;P1;durP2;ratioP2;P2;SDS_P1;SDS_P2;PMS_P1;PMS_P2;Temp;Humidity;BMP_temperature;BMP_pressure;BME280_temperature;BME280_humidity;BME280_pressure;Samples;Min_cycle;Max_cycle;Signal;HPM_P1;HPM_P2
2023/12/16 00:00:44;;;;;;;33.58;6.20;;;;;;;5.87;100.00;103205.22;5024744;28;20179;-40
2023/12/16 00:03:12;;;;;;;24.35;4.68;;;;;;;5.91;100.00;103198.22;5021386;28;20258;-42
2023/12/16 00:05:39;;;;;;;26.20;4.25;;;;;;;5.88;100.00;103200.78;5020554;28;20172;-42
2023/12/16 00:08:04;;;;;;;24.33;5.03;;;;;;;5.88;100.00;103207.03;5018161;28;20212;-41
2023/12/16 00:10:30;;;;;;;30.10;5.40;;;;;;;5.86;100.00;103208.75;5018712;28;20211;-41
2023/12/16 00:12:55;;;;;;;34.60;4.95;;;;;;;5.91;100.00;103208.84;5017020;28;20224;-42
2023/12/16 00:15:21;;;;;;;22.30;4.25;;;;;;;5.88;100.00;103209.69;5021967;28;20318;-41
2023/12/16 00:17:46;;;;;;;21.77;4.88;;;;;;;5.91;100.00;103200.88;5017913;28;20178;-42
2023/12/16 00:20:12;;;;;;;23.85;4.07;;;;;;;5.94;100.00;103217.81;5024344;28;20176;-42
2023/12/16 00:22:40;;;;;;;26.17;4.13;;;;;;;5.94;100.00;103219.53;5024839;28;20200;-40
2023/12/16 00:25:09;;;;;;;27.63;5.20;;;;;;;5.92;100.00;103226.59;5018279;28;20225;-41
2023/12/16 00:27:35;;;;;;;24.55;4.32;;;;;;;5.95;100.00;103211.63;5017686;28;20236;-42
2023/12/16 00:30:01;;;;;;;24.75;4.45;;;;;;;6.02;100.00;103211.75;5023247;28;20219;-42
2023/12/16 00:32:26;;;;;;;23.35;4.82;;;;;;;6.02;100.00;103209.09;5021639;28;20278;-41
2023/12/16 00:34:52;;;;;;;20.33;4.60;;;;;;;5.98;100.00;103213.44;5021122;28;20266;-42
2023/12/16 00:37:17;;;;;;;24.92;4.95;;;;;;;5.98;100.00;103202.81;5020094;28;20277;-39
2023/12/16 00:39:43;;;;;;;23.33;4.07;;;;;;;5.94;100.00;103216.88;5023371;28;20299;-42
2023/12/16 00:42:08;;;;;;;22.85;5.22;;;;;;;5.94;100.00;103207.16;5022025;28;20312;-41
2023/12/16 00:44:34;;;;;;;20.38;4.68;;;;;;;6.00;100.00;103211.72;5021554;28;20497;-40
2023/12/16 00:47:00;;;;;;;22.23;4.60;;;;;;;5.95;100.00;103221.38;5018355;28;20184;-44
2023/12/16 00:49:27;;;;;;;28.38;4.50;;;;;;;5.96;100.00;103220.50;5018590;28;20178;-42
2023/12/16 00:51:52;;;;;;;21.27;3.95;;;;;;;6.01;100.00;103215.25;5021535;28;20693;-41
2023/12/16 00:54:18;;;;;;;22.58;4.25;;;;;;;6.02;100.00;103217.06;5016030;28;20200;-41
2023/12/16 00:56:43;;;;;;;19.58;4.03;;;;;;;6.00;100.00;103217.03;5018782;28;20179;-42
2023/12/16 00:59:09;;;;;;;23.70;5.00;;;;;;;6.02;100.00;103217.97;5018650;28;20191;-41
2023/12/16 01:01:34;;;;;;;21.02;4.40;;;;;;;5.98;100.00;103229.41;5020641;28;20200;-40
2023/12/16 01:03:59;;;;;;;20.05;4.80;;;;;;;5.96;100.00;103229.38;5016817;28;20597;-42
2023/12/16 01:06:26;;;;;;;34.47;5.82;;;;;;;5.94;100.00;103225.78;5021590;28;20271;-41
2023/12/16 01:08:51;;;;;;;22.27;4.88;;;;;;;5.93;100.00;103231.94;5019758;28;20200;-41
2023/12/16 01:11:16;;;;;;;22.23;4.57;;;;;;;5.87;100.00;103241.56;5019202;28;20425;-42
2023/12/16 01:13:42;;;;;;;22.30;5.55;;;;;;;5.86;100.00;103229.13;5019386;28;20180;-43
2023/12/16 01:16:08;;;;;;;24.90;5.30;;;;;;;5.84;100.00;103220.22;5021568;28;20671;-41
2023/12/16 01:18:33;;;;;;;21.63;4.40;;;;;;;5.82;100.00;103212.22;5017128;28;20527;-41
2023/12/16 01:21:02;;;;;;;22.27;4.93;;;;;;;5.85;100.00;103206.06;5020320;28;20563;-42
2023/12/16 01:23:27;;;;;;;27.45;5.43;;;;;;;5.73;100.00;103199.63;5019476;28;20192;-43
2023/12/16 01:25:53;;;;;;;23.98;5.75;;;;;;;5.74;100.00;103198.75;5022649;28;20254;-43
2023/12/16 01:28:18;;;;;;;20.60;5.35;;;;;;;5.70;100.00;103212.84;5016940;28;20239;-43
2023/12/16 01:30:44;;;;;;;18.02;4.75;;;;;;;5.67;100.00;103207.50;5019906;28;20180;-41
2023/12/16 01:33:09;;;;;;;24.17;5.82;;;;;;;5.68;100.00;103201.28;5021292;28;20172;-39
2023/12/16 01:35:35;;;;;;;23.20;4.85;;;;;;;5.70;100.00;103186.25;5021429;28;20187;-41
2023/12/16 01:38:00;;;;;;;28.80;5.78;;;;;;;5.60;100.00;103178.97;5020375;28;20223;-40
2023/12/16 01:40:26;;;;;;;29.17;5.70;;;;;;;5.60;100.00;103165.69;5027534;28;20198;-41
2023/12/16 01:42:53;;;;;;;26.65;5.93;;;;;;;5.58;100.00;103159.44;5026634;28;20211;-44
2023/12/16 01:45:18;;;;;;;21.23;5.47;;;;;;;5.57;100.00;103169.19;5023404;28;20193;-43
2023/12/16 01:47:44;;;;;;;21.38;6.07;;;;;;;5.63;100.00;103168.41;5025925;28;20309;-41
2023/12/16 01:50:12;;;;;;;28.67;7.00;;;;;;;5.59;100.00;103166.53;5024902;28;20184;-41
2023/12/16 01:52:41;;;;;;;18.40;5.03;;;;;;;5.55;100.00;103170.00;5024285;28;20552;-39
2023/12/16 01:55:09;;;;;;;15.02;5.15;;;;;;;5.52;100.00;103175.25;5020841;28;20526;-41
2023/12/16 01:57:35;;;;;;;20.15;5.93;;;;;;;5.52;100.00;103181.47;5024293;28;20220;-44
2023/12/16 02:00:05;;;;;;;20.63;6.25;;;;;;;5.51;100.00;103184.09;5025201;28;20659;-40
2023/12/16 02:02:39;;;;;;;29.33;5.88;;;;;;;5.45;100.00;103192.84;5024512;28;20262;-42
2023/12/16 02:05:07;;;;;;;22.48;6.03;;;;;;;5.49;100.00;103193.81;5024034;28;20243;-43
2023/12/16 02:07:32;;;;;;;22.83;6.13;;;;;;;5.46;100.00;103202.59;5021678;28;20206;-42
2023/12/16 02:09:58;;;;;;;26.80;5.95;;;;;;;5.51;100.00;103205.34;5024438;28;20559;-42
2023/12/16 02:12:26;;;;;;;21.13;5.47;;;;;;;5.44;100.00;103208.75;5021145;28;20196;-41
2023/12/16 02:14:51;;;;;;;23.17;5.13;;;;;;;5.49;100.00;103191.16;5022783;28;20271;-40
2023/12/16 02:17:17;;;;;;;23.15;5.65;;;;;;;5.52;100.00;103185.91;5022304;28;20193;-41
2023/12/16 02:19:46;;;;;;;28.48;6.32;;;;;;;5.47;100.00;103174.28;5023601;28;20179;-41
2023/12/16 02:22:11;;;;;;;21.98;6.10;;;;;;;5.53;100.00;103193.00;5015534;28;20311;-44
2023/12/16 02:24:38;;;;;;;32.88;6.68;;;;;;;5.51;100.00;103185.00;5019635;28;20203;-40
2023/12/16 02:27:04;;;;;;;25.02;6.68;;;;;;;5.53;100.00;103185.03;5018848;28;20177;-42
2023/12/16 02:29:30;;;;;;;22.65;6.22;;;;;;;5.57;100.00;103200.16;5021453;28;20238;-43
2023/12/16 02:31:55;;;;;;;23.55;6.25;;;;;;;5.50;100.00;103193.84;5019327;28;20208;-43
2023/12/16 02:34:23;;;;;;;24.30;6.80;;;;;;;5.46;100.00;103183.09;5022470;28;20184;-41
2023/12/16 02:36:48;;;;;;;23.90;6.95;;;;;;;5.44;100.00;103196.34;5018830;28;20338;-42
2023/12/16 02:39:14;;;;;;;25.73;6.47;;;;;;;5.42;100.00;103192.78;5024070;28;20180;-43
2023/12/16 02:41:39;;;;;;;26.83;6.05;;;;;;;5.41;100.00;103187.44;5017629;28;20192;-43
2023/12/16 02:44:05;;;;;;;33.92;6.95;;;;;;;5.41;100.00;103192.75;5019457;28;20192;-43
2023/12/16 02:46:30;;;;;;;30.30;6.25;;;;;;;5.41;100.00;103192.75;5021366;28;20184;-40
2023/12/16 02:48:56;;;;;;;36.75;6.55;;;;;;;5.40;100.00;103196.25;5020692;28;20291;-42
2023/12/16 02:51:21;;;;;;;32.40;6.45;;;;;;;5.41;100.00;103188.31;5020099;28;20249;-44
2023/12/16 02:53:47;;;;;;;32.78;6.15;;;;;;;5.40;100.00;103181.22;5021815;28;20497;-42
2023/12/16 02:56:13;;;;;;;30.02;6.03;;;;;;;5.43;100.00;103193.69;5022384;28;20219;-42
2023/12/16 02:58:39;;;;;;;26.92;5.90;;;;;;;5.43;100.00;103191.91;5016707;28;20594;-42
2023/12/16 03:01:04;;;;;;;27.70;6.85;;;;;;;5.44;100.00;103198.13;5021185;28;20200;-42
2023/12/16 03:03:30;;;;;;;28.27;6.78;;;;;;;5.48;100.00;103200.88;5022494;28;20187;-41
2023/12/16 03:05:55;;;;;;;25.30;5.85;;;;;;;5.56;100.00;103204.59;5018190;28;20623;-43
2023/12/16 03:08:21;;;;;;;17.63;5.05;;;;;;;5.54;100.00;103206.34;5019357;28;20480;-44
2023/12/16 03:10:46;;;;;;;30.52;6.32;;;;;;;5.56;100.00;103217.00;5019930;28;20195;-42
2023/12/16 03:13:11;;;;;;;23.52;6.00;;;;;;;5.59;100.00;103225.03;5015562;28;20192;-38
2023/12/16 03:15:37;;;;;;;25.20;6.22;;;;;;;5.61;100.00;103222.41;5022831;28;20258;-40
2023/12/16 03:18:03;;;;;;;25.55;6.07;;;;;;;5.63;100.00;103226.00;5019776;28;20180;-40
2023/12/16 03:20:28;;;;;;;30.67;5.97;;;;;;;5.63;100.00;103210.94;5018918;28;20323;-41
2023/12/16 03:22:54;;;;;;;24.85;5.40;;;;;;;5.73;100.00;103202.28;5019907;28;20195;-43
2023/12/16 03:25:19;;;;;;;24.35;5.95;;;;;;;5.65;100.00;103201.25;5024218;28;20168;-42
2023/12/16 03:27:45;;;;;;;24.92;5.47;;;;;;;5.70;100.00;103196.00;5021359;28;20303;-40
2023/12/16 03:30:11;;;;;;;24.13;6.32;;;;;;;5.67;100.00;103198.63;5020367;28;20172;-40
2023/12/16 03:32:36;;;;;;;25.52;6.47;;;;;;;5.65;100.00;103205.66;5020337;28;20260;-42
2023/12/16 03:35:02;;;;;;;26.17;6.53;;;;;;;5.65;100.00;103210.97;5019429;28;20184;-42
2023/12/16 03:37:27;;;;;;;22.33;5.85;;;;;;;5.65;100.00;103211.88;5019270;28;20174;-40
2023/12/16 03:39:53;;;;;;;22.13;5.57;;;;;;;5.74;100.00;103208.50;5017508;28;20181;-43
2023/12/16 03:42:19;;;;;;;18.10;5.45;;;;;;;5.74;100.00;103197.88;5019730;28;20351;-43
2023/12/16 03:44:47;;;;;;;29.63;5.40;;;;;;;5.72;100.00;103200.47;5018655;28;20180;-40
2023/12/16 03:47:13;;;;;;;17.17;4.93;;;;;;;5.60;100.00;103204.66;5021762;28;20609;-39
2023/12/16 03:49:39;;;;;;;23.73;5.10;;;;;;;5.64;100.00;103194.13;5020966;28;20281;-42
2023/12/16 03:52:05;;;;;;;23.55;5.20;;;;;;;5.70;100.00;103190.69;5021381;28;20200;-41
2023/12/16 03:54:31;;;;;;;18.00;4.43;;;;;;;5.70;100.00;103193.34;5015509;28;20211;-40
2023/12/16 03:56:57;;;;;;;26.95;4.90;;;;;;;5.70;100.00;103207.53;5019809;28;20212;-38
2023/12/16 03:59:22;;;;;;;21.98;5.13;;;;;;;5.68;100.00;103211.94;5021495;28;20679;-40
2023/12/16 04:01:48;;;;;;;22.40;4.25;;;;;;;5.70;100.00;103214.63;5018884;28;20200;-40
2023/12/16 04:04:13;;;;;;;17.27;3.92;;;;;;;5.71;100.00;103214.66;5017492;28;20177;-41
2023/12/16 04:06:39;;;;;;;18.17;3.90;;;;;;;5.69;100.00;103232.34;5019349;28;20189;-39
2023/12/16 04:09:04;;;;;;;19.63;3.90;;;;;;;5.71;100.00;103227.97;5018056;28;20325;-43
2023/12/16 04:11:30;;;;;;;20.30;3.97;;;;;;;5.77;100.00;103219.19;5019863;28;20211;-43
2023/12/16 04:13:55;;;;;;;17.23;3.15;;;;;;;5.76;100.00;103226.28;5016644;28;20187;-40
2023/12/16 04:16:21;;;;;;;25.35;3.70;;;;;;;5.75;100.00;103237.81;5018460;28;20911;-42
2023/12/16 04:18:46;;;;;;;19.05;4.05;;;;;;;5.78;100.00;103248.50;5023259;28;20184;-41
2023/12/16 04:21:12;;;;;;;19.75;3.40;;;;;;;5.78;100.00;103244.94;5017818;28;20203;-42
2023/12/16 04:23:37;;;;;;;17.17;2.78;;;;;;;5.81;100.00;103252.97;5017256;28;20176;-40
2023/12/16 04:26:03;;;;;;;17.73;3.72;;;;;;;5.77;100.00;103246.72;5022517;28;20180;-42
2023/12/16 04:28:28;;;;;;;11.93;3.08;;;;;;;5.80;100.00;103255.63;5018112;28;20207;-42
2023/12/16 04:30:54;;;;;;;16.70;3.25;;;;;;;5.80;100.00;103255.63;5018173;28;20751;-41
2023/12/16 04:33:20;;;;;;;20.80;3.10;;;;;;;5.82;100.00;103245.91;5016813;28;20195;-41
2023/12/16 04:35:45;;;;;;;24.00;3.15;;;;;;;5.82;100.00;103237.94;5017026;28;20237;-43
2023/12/16 04:38:11;;;;;;;18.17;3.25;;;;;;;5.83;100.00;103234.41;5022850;28;20770;-42
2023/12/16 04:40:36;;;;;;;16.23;3.17;;;;;;;5.83;100.00;103229.06;5016569;28;20187;-40
2023/12/16 04:43:01;;;;;;;16.50;3.78;;;;;;;5.82;100.00;103212.22;5025747;28;20248;-41
2023/12/16 04:45:27;;;;;;;14.80;2.70;;;;;;;5.87;100.00;103207.00;5016606;28;20690;-41
2023/12/16 04:47:52;;;;;;;15.00;2.78;;;;;;;5.77;100.00;103206.81;5016626;28;20204;-42
2023/12/16 04:50:18;;;;;;;15.65;3.42;;;;;;;5.94;100.00;103204.50;5023638;28;20187;-41
2023/12/16 04:52:43;;;;;;;15.23;2.53;;;;;;;5.82;100.00;103206.00;5016380;28;20212;-41
2023/12/16 04:55:10;;;;;;;13.90;3.80;;;;;;;5.82;100.00;103206.91;5015968;28;20177;-41
2023/12/16 04:57:36;;;;;;;15.15;3.15;;;;;;;5.78;100.00;103194.41;5021058;28;20173;-41
2023/12/16 05:00:04;;;;;;;17.05;3.08;;;;;;;5.73;100.00;103194.31;5017781;28;20204;-41
2023/12/16 05:02:30;;;;;;;14.07;3.00;;;;;;;5.72;100.00;103191.63;5019595;28;20211;-39
2023/12/16 05:04:55;;;;;;;11.63;2.42;;;;;;;5.71;100.00;103192.50;5017098;28;20647;-40
2023/12/16 05:09:55;;;;;;;23.10;2.72;;;;;;;5.77;100.00;103192.59;4999635;28;20711;-43
2023/12/16 05:12:20;;;;;;;12.85;3.13;;;;;;;5.72;100.00;103179.22;5004242;28;20200;-42
2023/12/16 05:14:46;;;;;;;17.52;2.63;;;;;;;5.77;100.00;103177.56;5005322;28;20221;-41
2023/12/16 05:17:11;;;;;;;10.38;2.40;;;;;;;5.70;100.00;103183.59;5007781;28;20189;-40
2023/12/16 05:19:37;;;;;;;13.20;2.28;;;;;;;5.66;100.00;103179.06;4998026;28;20647;-42
2023/12/16 05:22:02;;;;;;;9.45;2.13;;;;;;;5.67;100.00;103177.34;5002776;28;20234;-41
2023/12/16 05:24:28;;;;;;;10.68;2.17;;;;;;;5.65;100.00;103169.31;5002473;28;20539;-44
2023/12/16 05:26:54;;;;;;;16.80;3.20;;;;;;;5.65;100.00;103171.97;5003060;28;20595;-42
2023/12/16 05:29:19;;;;;;;14.68;3.00;;;;;;;5.62;100.00;103169.28;5003996;28;20205;-44
2023/12/16 05:31:44;;;;;;;14.70;2.75;;;;;;;5.57;100.00;103170.94;4998798;28;20626;-42
2023/12/16 05:34:10;;;;;;;15.45;3.55;;;;;;;5.57;100.00;103173.59;5002371;28;20187;-42
2023/12/16 05:36:36;;;;;;;14.23;2.83;;;;;;;5.54;100.00;103162.91;5005923;28;20185;-43
2023/12/16 05:39:01;;;;;;;17.23;3.00;;;;;;;5.49;100.00;103151.28;5004815;28;20601;-39
2023/12/16 05:41:27;;;;;;;11.27;2.40;;;;;;;5.46;100.00;103161.84;5005285;28;20280;-44
2023/12/16 05:43:52;;;;;;;14.85;2.75;;;;;;;5.53;100.00;103154.03;5003691;28;20267;-42
2023/12/16 05:46:18;;;;;;;17.58;2.95;;;;;;;5.43;100.00;103148.50;5007770;28;20224;-42
2023/12/16 05:48:43;;;;;;;17.90;3.17;;;;;;;5.41;100.00;103150.22;5003653;28;20212;-40
2023/12/16 05:51:08;;;;;;;17.85;3.08;;;;;;;5.40;100.00;103153.72;5001514;28;20588;-43
2023/12/16 05:53:34;;;;;;;16.52;2.70;;;;;;;5.37;100.00;103155.47;4998696;28;20197;-42
2023/12/16 05:56:00;;;;;;;12.35;2.45;;;;;;;5.34;100.00;103151.84;5006931;28;20254;-41
2023/12/16 05:58:25;;;;;;;11.52;2.85;;;;;;;5.32;100.00;103153.59;5003970;28;20670;-43
2023/12/16 06:00:51;;;;;;;14.10;2.65;;;;;;;5.37;100.00;103147.47;5001675;28;20184;-42
2023/12/16 06:03:16;;;;;;;10.68;2.20;;;;;;;5.42;100.00;103142.25;5003047;28;20212;-41
2023/12/16 06:05:42;;;;;;;20.77;2.88;;;;;;;5.49;100.00;103128.25;5002076;28;20663;-45
2023/12/16 06:08:07;;;;;;;12.55;2.20;;;;;;;5.46;100.00;103137.91;4985573;28;20215;-42
2023/12/16 06:10:33;;;;;;;17.02;3.55;;;;;;;5.43;100.00;103148.50;5000988;28;20180;-42
2023/12/16 06:12:58;;;;;;;11.70;2.28;;;;;;;5.52;100.00;103148.66;5002190;28;20247;-44
2023/12/16 06:15:25;;;;;;;12.98;3.13;;;;;;;5.53;100.00;103156.69;5004940;28;20648;-42
2023/12/16 06:17:50;;;;;;;14.98;2.30;;;;;;;5.56;100.00;103163.81;5005415;28;20549;-42
2023/12/16 06:20:16;;;;;;;18.92;2.92;;;;;;;5.57;100.00;103165.59;5005205;28;20187;-43
2023/12/16 06:22:42;;;;;;;16.48;2.90;;;;;;;5.66;100.00;103146.28;5000863;28;20304;-42
2023/12/16 06:25:07;;;;;;;15.23;2.88;;;;;;;5.77;100.00;103136.72;5003858;28;20260;-43
2023/12/16 06:27:33;;;;;;;13.75;2.88;;;;;;;5.76;100.00;103133.19;5003524;28;20201;-44
2023/12/16 06:29:59;;;;;;;8.82;2.20;;;;;;;5.80;100.00;103128.81;5004602;28;20658;-46
2023/12/16 06:32:24;;;;;;;15.00;2.60;;;;;;;5.88;100.00;103127.22;4999936;28;20200;-41
2023/12/16 06:34:49;;;;;;;17.48;3.17;;;;;;;5.92;100.00;103125.50;5003757;28;20698;-43
2023/12/16 06:37:15;;;;;;;14.57;3.08;;;;;;;5.96;100.00;103119.38;5003407;28;20189;-44
2023/12/16 06:39:40;;;;;;;15.55;3.03;;;;;;;5.96;100.00;103120.28;4983158;28;20256;-44
2023/12/16 06:42:07;;;;;;;13.27;2.40;;;;;;;6.02;100.00;103111.53;5004760;28;20230;-43
2023/12/16 06:44:32;;;;;;;15.32;2.63;;;;;;;6.01;100.00;103116.81;5001555;28;20263;-43
2023/12/16 06:46:58;;;;;;;7.82;2.15;;;;;;;6.01;100.00;103109.72;5003877;28;20242;-43
2023/12/16 06:49:23;;;;;;;8.13;2.17;;;;;;;6.03;100.00;103117.72;4999935;28;20295;-43
2023/12/16 06:51:49;;;;;;;15.48;2.75;;;;;;;6.00;100.00;103117.69;5000420;28;20311;-43
2023/12/16 06:54:14;;;;;;;13.10;2.78;;;;;;;6.00;100.00;103131.00;5006073;28;20230;-40
2023/12/16 06:56:40;;;;;;;15.50;2.70;;;;;;;5.94;100.00;103116.69;5005996;28;20189;-43
2023/12/16 06:59:06;;;;;;;15.27;2.70;;;;;;;5.91;100.00;103110.41;5004454;28;20173;-42
2023/12/16 07:01:31;;;;;;;15.88;2.83;;;;;;;5.89;100.00;103102.38;4998709;28;20241;-41
2023/12/16 07:03:56;;;;;;;10.95;2.60;;;;;;;5.85;100.00;103091.66;5001409;28;20176;-42
2023/12/16 07:06:22;;;;;;;13.20;2.45;;;;;;;5.83;100.00;103090.75;5002369;28;20651;-44
2023/12/16 07:08:47;;;;;;;9.18;1.92;;;;;;;5.87;100.00;103105.91;5001592;28;20644;-41
2023/12/16 07:11:14;;;;;;;7.07;2.95;;;;;;;5.89;100.00;103105.03;5000134;28;20774;-42
2023/12/16 07:13:40;;;;;;;8.60;2.30;;;;;;;5.84;100.00;103121.78;5001433;28;20185;-42
2023/12/16 07:16:06;;;;;;;11.30;2.58;;;;;;;5.84;100.00;103130.69;5001883;28;20193;-41
2023/12/16 07:18:32;;;;;;;12.45;2.53;;;;;;;5.81;100.00;103116.41;5003410;28;20200;-45
2023/12/16 07:20:57;;;;;;;11.75;2.63;;;;;;;5.83;100.00;103130.66;5001872;28;20215;-42
2023/12/16 07:23:24;;;;;;;11.55;2.75;;;;;;;5.85;100.00;103127.13;4983905;28;20211;-39
2023/12/16 07:25:50;;;;;;;11.05;2.70;;;;;;;5.86;100.00;103139.59;5003893;28;20658;-43
2023/12/16 07:28:16;;;;;;;13.93;2.95;;;;;;;5.84;100.00;103119.13;5000401;28;20213;-42
2023/12/16 07:30:42;;;;;;;10.13;2.80;;;;;;;5.84;100.00;103117.38;4994318;28;20209;-41
2023/12/16 07:33:07;;;;;;;14.15;3.10;;;;;;;5.87;100.00;103116.53;5002075;28;20181;-43
2023/12/16 07:35:34;;;;;;;11.95;2.75;;;;;;;5.87;100.00;103120.09;5001691;28;20199;-42
2023/12/16 07:38:00;;;;;;;13.35;3.45;;;;;;;5.93;100.00;103122.88;5001393;28;20184;-42
2023/12/16 07:40:25;;;;;;;12.93;3.25;;;;;;;6.02;100.00;103131.91;4999437;28;20185;-45
2023/12/16 07:42:51;;;;;;;15.27;3.40;;;;;;;5.94;100.00;103126.41;4997568;28;20200;-39
2023/12/16 07:45:17;;;;;;;13.77;3.65;;;;;;;5.93;100.00;103124.63;5002150;28;20201;-42
2023/12/16 07:47:42;;;;;;;15.10;3.45;;;;;;;5.94;100.00;103126.41;5001090;28;20586;-41
2023/12/16 07:50:10;;;;;;;17.67;3.53;;;;;;;5.91;100.00;103121.94;5001552;28;20609;-44
2023/12/16 07:52:35;;;;;;;16.20;2.97;;;;;;;5.91;100.00;103113.94;5004639;28;20223;-45
2023/12/16 07:55:02;;;;;;;17.23;3.65;;;;;;;5.92;100.00;103106.88;5003696;28;20189;-42
2023/12/16 07:57:27;;;;;;;15.48;3.65;;;;;;;5.88;100.00;103108.59;5002625;28;20181;-44
2023/12/16 07:59:53;;;;;;;17.33;4.00;;;;;;;5.84;100.00;103106.75;4997593;28;20198;-43
2023/12/16 08:02:19;;;;;;;15.23;4.00;;;;;;;5.82;100.00;103111.13;4998517;28;20208;-42
2023/12/16 08:04:45;;;;;;;20.95;4.28;;;;;;;5.83;100.00;103114.69;5001677;28;20577;-42
2023/12/16 08:07:10;;;;;;;14.40;3.85;;;;;;;5.83;100.00;103117.34;4999898;28;20192;-42
2023/12/16 08:09:36;;;;;;;13.85;3.63;;;;;;;5.89;100.00;103122.78;5003465;28;20212;-43
2023/12/16 08:12:01;;;;;;;17.67;4.63;;;;;;;5.77;100.00;103126.09;4999353;28;20201;-41
2023/12/16 08:14:28;;;;;;;10.70;3.80;;;;;;;5.74;100.00;103124.28;5002088;28;20188;-44
2023/12/16 08:16:54;;;;;;;17.45;4.32;;;;;;;5.77;100.00;103128.75;4999790;28;20667;-41
2023/12/16 08:19:19;;;;;;;11.40;4.00;;;;;;;5.72;100.00;103131.31;5001765;28;20307;-44
2023/12/16 08:21:45;;;;;;;14.48;4.45;;;;;;;5.72;100.00;103149.06;4999250;28;20267;-40
2023/12/16 08:24:10;;;;;;;14.35;3.90;;;;;;;5.70;100.00;103141.03;4998720;28;20256;-43
2023/12/16 08:26:36;;;;;;;18.10;5.55;;;;;;;5.72;100.00;103135.75;5002947;28;20677;-46
2023/12/16 08:29:02;;;;;;;15.18;4.40;;;;;;;5.75;100.00;103139.38;5000260;28;20629;-41
2023/12/16 08:31:28;;;;;;;20.10;5.15;;;;;;;5.77;100.00;103137.66;5000813;28;20286;-42
2023/12/16 08:33:54;;;;;;;17.23;5.65;;;;;;;5.71;100.00;103132.22;5001835;28;20180;-42
2023/12/16 08:36:19;;;;;;;19.63;5.88;;;;;;;5.69;100.00;103139.25;5000425;28;20598;-42
2023/12/16 08:38:44;;;;;;;21.23;5.38;;;;;;;5.74;100.00;103129.59;4999308;28;20185;-40
2023/12/16 08:41:11;;;;;;;20.05;6.10;;;;;;;5.69;100.00;103131.28;4977355;28;20201;-40
2023/12/16 08:43:38;;;;;;;20.33;5.40;;;;;;;5.73;100.00;103133.13;5004325;28;20185;-42
2023/12/16 08:46:04;;;;;;;21.80;6.65;;;;;;;5.72;100.00;103127.78;5004858;28;20284;-40
2023/12/16 08:48:30;;;;;;;22.63;6.20;;;;;;;5.74;100.00;103121.63;5004426;28;20306;-43
2023/12/16 08:50:58;;;;;;;15.32;6.05;;;;;;;5.73;100.00;103124.28;5003108;28;20266;-43
2023/12/16 08:53:24;;;;;;;30.92;7.78;;;;;;;5.74;100.00;103118.97;5002926;28;20183;-43
2023/12/16 08:55:50;;;;;;;24.40;7.85;;;;;;;5.77;100.00;103118.13;5004882;28;20214;-42
2023/12/16 08:58:17;;;;;;;18.33;6.82;;;;;;;5.84;100.00;103127.09;5004877;28;20192;-41
2023/12/16 09:00:42;;;;;;;18.52;6.82;;;;;;;5.83;100.00;103130.66;5001772;28;20223;-43
2023/12/16 09:03:08;;;;;;;18.33;7.88;;;;;;;5.85;100.00;103132.47;5006357;28;20284;-43
2023/12/16 09:05:34;;;;;;;25.15;8.27;;;;;;;5.83;100.00;103141.28;5008877;28;20172;-42
2023/12/16 09:07:59;;;;;;;25.63;8.07;;;;;;;5.83;100.00;103154.59;5005559;28;20683;-43
2023/12/16 09:10:25;;;;;;;26.75;7.18;;;;;;;5.86;100.00;103157.28;5001141;28;20188;-43
2023/12/16 09:12:51;;;;;;;21.90;7.35;;;;;;;5.90;100.00;103156.47;5002912;28;20204;-43
2023/12/16 09:15:17;;;;;;;24.85;9.18;;;;;;;5.88;100.00;103168.84;5004724;28;20281;-43
2023/12/16 09:17:44;;;;;;;22.75;7.82;;;;;;;5.89;100.00;103168.00;5004190;28;20191;-44
2023/12/16 09:20:10;;;;;;;21.67;7.90;;;;;;;5.88;100.00;103164.47;5004026;28;20647;-43
2023/12/16 09:22:36;;;;;;;24.35;7.82;;;;;;;5.90;100.00;103164.47;5009781;28;20204;-41
2023/12/16 09:25:04;;;;;;;20.23;7.25;;;;;;;5.90;100.00;103170.72;5011467;28;20304;-41
2023/12/16 09:27:29;;;;;;;23.58;7.53;;;;;;;5.88;100.00;103166.19;5004010;28;20569;-44
2023/12/16 09:29:55;;;;;;;22.90;8.23;;;;;;;5.91;100.00;103163.63;5001246;28;20264;-42
2023/12/16 09:32:21;;;;;;;26.50;8.20;;;;;;;5.92;100.00;103163.63;4999890;28;20260;-42
2023/12/16 09:34:47;;;;;;;23.60;8.48;;;;;;;5.91;100.00;103158.28;5007395;28;20188;-42
2023/12/16 09:37:14;;;;;;;25.52;8.07;;;;;;;5.95;100.00;103157.53;5003711;28;20604;-42
2023/12/16 09:39:40;;;;;;;28.48;8.80;;;;;;;5.96;100.00;103151.31;5003199;28;20268;-42
2023/12/16 09:42:06;;;;;;;26.27;9.02;;;;;;;5.94;100.00;103143.28;4999464;28;20292;-43
2023/12/16 09:44:36;;;;;;;21.10;9.00;;;;;;;5.94;100.00;103147.69;5001000;28;20188;-41
2023/12/16 09:47:01;;;;;;;19.23;8.63;;;;;;;5.94;100.00;103142.38;4998614;28;20188;-42
2023/12/16 09:49:29;;;;;;;21.40;8.05;;;;;;;5.95;100.00;103138.91;4999352;28;20213;-41
2023/12/16 09:51:55;;;;;;;25.58;9.13;;;;;;;5.99;100.00;103127.41;5002986;28;20211;-41
2023/12/16 09:54:20;;;;;;;26.52;10.05;;;;;;;5.95;100.00;103129.16;5000057;28;20185;-41
2023/12/16 09:56:49;;;;;;;23.77;10.02;;;;;;;5.98;100.00;103129.19;5001281;28;20204;-41
2023/12/16 09:59:16;;;;;;;21.65;9.60;;;;;;;5.98;100.00;103115.88;4999051;28;20195;-40
2023/12/16 10:01:52;;;;;;;17.67;10.35;;;;;;;6.00;100.00;103115.03;4972193;28;20262;-43
2023/12/16 10:04:21;;;;;;;27.10;11.05;;;;;;;5.97;100.00;103122.09;5002059;28;20184;-44
2023/12/16 10:06:46;;;;;;;24.58;10.93;;;;;;;5.98;100.00;103118.53;5003692;28;20212;-43
2023/12/16 10:09:13;;;;;;;31.08;10.70;;;;;;;6.01;100.00;103112.38;5001411;28;20263;-41
2023/12/16 10:11:41;;;;;;;28.00;11.43;;;;;;;6.00;100.00;103113.25;4998527;28;20197;-41
2023/12/16 10:14:07;;;;;;;24.15;10.52;;;;;;;6.05;100.00;103111.56;5005696;28;20256;-43
2023/12/16 10:16:33;;;;;;;29.20;11.38;;;;;;;6.03;100.00;103099.09;4999733;28;20267;-43
2023/12/16 10:18:59;;;;;;;27.10;11.40;;;;;;;6.06;100.00;103100.06;5002213;28;20184;-41
2023/12/16 10:21:33;;;;;;;30.83;11.88;;;;;;;6.04;100.00;103100.91;5001955;28;20627;-43
2023/12/16 10:24:00;;;;;;;26.45;11.23;;;;;;;6.03;100.00;103086.69;5002444;28;20216;-41
2023/12/16 10:26:27;;;;;;;29.13;11.43;;;;;;;6.06;100.00;103099.16;5002000;28;20197;-44
2023/12/16 10:28:53;;;;;;;26.73;11.48;;;;;;;6.05;100.00;103094.69;5003637;28;20208;-42
2023/12/16 10:31:21;;;;;;;26.73;11.80;;;;;;;6.06;100.00;103089.41;5001144;28;20259;-40
2023/12/16 10:33:50;;;;;;;28.92;11.43;;;;;;;6.16;100.00;103099.31;5003321;28;20656;-40
2023/12/16 10:36:17;;;;;;;26.30;11.95;;;;;;;6.18;100.00;103086.94;5003663;28;20184;-41
2023/12/16 10:38:42;;;;;;;27.90;12.57;;;;;;;6.21;100.00;103087.84;4986412;28;20268;-43
2023/12/16 10:41:11;;;;;;;32.95;13.00;;;;;;;6.13;100.00;103083.31;5003836;28;20204;-42
2023/12/16 10:43:37;;;;;;;24.80;12.32;;;;;;;6.19;100.00;103098.50;5005720;28;20285;-44
2023/12/16 10:46:05;;;;;;;23.52;11.23;;;;;;;6.23;100.00;103084.38;4986460;28;20192;-44
2023/12/16 10:48:35;;;;;;;31.85;13.40;;;;;;;6.24;100.00;103093.25;5001878;28;20201;-43
2023/12/16 10:51:03;;;;;;;28.70;12.82;;;;;;;6.18;100.00;103083.38;4999367;28;20208;-42
2023/12/16 10:53:34;;;;;;;33.17;13.65;;;;;;;6.14;100.00;103078.88;5006639;28;20259;-42
2023/12/16 10:56:02;;;;;;;32.83;12.55;;;;;;;6.11;100.00;103094.81;5002387;28;20209;-40
2023/12/16 10:58:30;;;;;;;39.13;14.18;;;;;;;6.16;100.00;103080.69;5000811;28;20224;-42
2023/12/16 11:01:20;;;;;;;39.03;13.95;;;;;;;6.17;100.00;103076.28;5001436;28;20185;-43
2023/12/16 11:03:54;;;;;;;34.60;13.65;;;;;;;6.12;100.00;103078.88;5004633;28;20188;-43
2023/12/16 11:06:55;;;;;;;39.58;15.38;;;;;;;6.14;100.00;103063.84;5005212;28;20185;-43
2023/12/16 11:09:21;;;;;;;37.63;16.83;;;;;;;6.19;100.00;103071.88;5036600;22;20814;-40
2023/12/16 11:11:47;;;;;;;42.28;15.52;;;;;;;6.18;100.00;103070.97;5029195;28;20211;-42
2023/12/16 11:14:15;;;;;;;41.85;16.95;;;;;;;6.22;100.00;103063.06;5028345;28;20212;-40